Time;durP1;ratioP1;P1;durP2;ratioP2;P2;SDS_P1;SDS_P2;PMS_P1;PMS_P2;Temp;Humidity;BMP_temperature;BMP_pressure;BME280_temperature;BME280_humidity;BME280_pressure;Samples;Min_cycle;Max_cycle;Signal;HPM_P1;HPM_P2
2020/12/23 00:00:48;;;;;;;0.30;0.20;;;;;;;14.12;100.00;100155.53;5017896;28;20455;-55
2020/12/23 00:03:14;;;;;;;0.30;0.20;;;;;;;14.16;100.00;100150.91;5021933;28;20431;-54
2020/12/23 00:05:40;;;;;;;0.30;0.20;;;;;;;14.25;100.00;100155.81;5006081;28;20980;-54
2020/12/23 00:08:06;;;;;;;0.30;0.20;;;;;;;14.10;100.00;100143.16;5026103;28;20423;-55
2020/12/23 00:10:32;;;;;;;0.30;0.20;;;;;;;14.11;100.00;100136.84;5026277;28;20480;-54
2020/12/23 00:12:58;;;;;;;0.30;0.20;;;;;;;14.00;100.00;100142.72;5019207;28;20422;-55
2020/12/23 00:15:25;;;;;;;0.30;0.20;;;;;;;13.88;100.00;100137.91;5019443;28;20431;-54
2020/12/23 00:17:51;;;;;;;0.30;0.20;;;;;;;14.04;100.00;100138.97;5026192;28;20431;-55
2020/12/23 00:20:17;;;;;;;0.30;0.20;;;;;;;14.01;100.00;100144.44;5025951;28;20482;-55
2020/12/23 00:22:43;;;;;;;0.30;0.20;;;;;;;14.01;100.00;100136.44;5025860;28;20427;-54
2020/12/23 00:25:09;;;;;;;0.30;0.20;;;;;;;13.96;100.00;100132.22;5025673;28;20473;-55
2020/12/23 00:27:35;;;;;;;0.30;0.20;;;;;;;13.91;100.00;100138.63;5019439;28;20487;-53
2020/12/23 00:30:03;;;;;;;0.30;0.20;;;;;;;14.08;100.00;100135.19;5019032;28;20540;-55
2020/12/23 00:32:29;;;;;;;0.30;0.20;;;;;;;14.00;100.00;100141.84;5016839;28;20447;-55
2020/12/23 00:34:56;;;;;;;0.30;0.20;;;;;;;14.22;100.00;100139.91;5018847;28;20921;-54
2020/12/23 00:37:23;;;;;;;0.30;0.20;;;;;;;14.08;100.00;100137.88;5006665;28;20458;-55
2020/12/23 00:39:49;;;;;;;0.30;0.20;;;;;;;14.20;100.00;100134.66;5018384;28;20455;-55
2020/12/23 00:42:20;;;;;;;0.30;0.20;;;;;;;14.10;100.00;100129.78;5024352;28;20519;-55
2020/12/23 00:44:46;;;;;;;0.30;0.20;;;;;;;13.91;100.00;100129.75;5025574;28;20452;-54
2020/12/23 00:47:12;;;;;;;0.30;0.20;;;;;;;13.88;100.00;100133.44;5019828;28;20452;-55
2020/12/23 00:49:39;;;;;;;0.30;0.20;;;;;;;13.89;100.00;100131.63;5018802;28;20501;-54
2020/12/23 00:52:05;;;;;;;0.30;0.20;;;;;;;13.90;100.00;100139.56;5024164;28;20431;-54
2020/12/23 00:54:31;;;;;;;0.30;0.20;;;;;;;13.98;100.00;100143.69;5025180;28;20456;-55
2020/12/23 00:56:57;;;;;;;0.30;0.20;;;;;;;13.87;100.00;100141.53;5011968;28;20440;-54
2020/12/23 00:59:23;;;;;;;0.30;0.20;;;;;;;13.79;100.00;100139.19;5025626;28;20590;-54
2020/12/23 01:01:56;;;;;;;0.30;0.20;;;;;;;13.88;100.00;100153.94;5020313;28;20451;-54
2020/12/23 01:04:22;;;;;;;0.30;0.20;;;;;;;14.03;100.00;100171.09;5006684;28;20935;-55
2020/12/23 01:06:48;;;;;;;0.30;0.20;;;;;;;14.00;100.00;100166.78;5021229;28;20489;-55
2020/12/23 01:09:14;;;;;;;0.30;0.20;;;;;;;13.92;100.00;100158.22;5020656;28;20476;-54
2020/12/23 01:11:40;;;;;;;0.30;0.20;;;;;;;13.87;100.00;100165.56;5026795;28;20448;-55
2020/12/23 01:14:06;;;;;;;0.30;0.20;;;;;;;13.67;100.00;100169.09;5029248;28;20505;-54
2020/12/23 01:16:32;;;;;;;0.30;0.20;;;;;;;13.59;100.00;100177.47;5025043;28;20447;-55
2020/12/23 01:18:59;;;;;;;0.30;0.20;;;;;;;13.64;100.00;100171.91;5022549;28;20476;-55
2020/12/23 01:21:25;;;;;;;0.30;0.20;;;;;;;13.70;100.00;100171.63;5026610;28;20427;-54
2020/12/23 01:23:51;;;;;;;0.30;0.20;;;;;;;13.63;100.00;100167.50;5028730;28;20456;-53
2020/12/23 01:26:17;;;;;;;0.30;0.20;;;;;;;13.57;100.00;100167.78;5025013;28;20461;-54
2020/12/23 01:28:46;;;;;;;0.30;0.20;;;;;;;13.59;100.00;100171.25;5022347;28;20499;-53
2020/12/23 01:31:13;;;;;;;0.30;0.20;;;;;;;13.66;100.00;100167.38;5026138;28;20486;-52
2020/12/23 01:33:39;;;;;;;0.30;0.20;;;;;;;13.81;100.00;100166.69;5029419;28;20453;-54
2020/12/23 01:36:08;;;;;;;0.30;0.20;;;;;;;13.72;100.00;100175.13;5025415;28;20478;-55
2020/12/23 01:38:34;;;;;;;0.30;0.20;;;;;;;13.63;100.00;100172.84;5021673;28;20454;-55
2020/12/23 01:41:03;;;;;;;0.30;0.20;;;;;;;13.78;100.00;100174.84;5026267;28;20451;-54
2020/12/23 01:43:31;;;;;;;0.30;0.20;;;;;;;13.92;100.00;100174.25;5029024;28;20452;-54
2020/12/23 01:45:57;;;;;;;0.30;0.20;;;;;;;13.86;100.00;100178.06;5025049;28;20493;-54
2020/12/23 01:48:28;;;;;;;0.30;0.20;;;;;;;13.73;100.00;100186.69;5022111;28;20446;-54
2020/12/23 01:50:57;;;;;;;0.30;0.20;;;;;;;13.65;100.00;100187.00;5024816;28;20926;-54
2020/12/23 01:53:25;;;;;;;0.30;0.20;;;;;;;13.53;100.00;100185.72;5028564;28;20793;-54
2020/12/23 01:55:52;;;;;;;0.30;0.20;;;;;;;13.60;100.00;100186.34;5026922;28;20419;-55
2020/12/23 01:58:19;;;;;;;0.30;0.20;;;;;;;13.66;100.00;100185.19;5008831;28;20494;-54
2020/12/23 02:00:45;;;;;;;0.30;0.20;;;;;;;13.73;100.00;100179.53;5022494;28;20453;-55
2020/12/23 02:03:12;;;;;;;0.30;0.20;;;;;;;13.56;100.00;100182.03;5026295;28;20452;-54
2020/12/23 02:05:40;;;;;;;0.30;0.20;;;;;;;13.44;100.00;100175.44;5021679;28;20979;-54
2020/12/23 02:08:08;;;;;;;0.30;0.20;;;;;;;13.56;100.00;100182.03;5008516;28;20619;-54
2020/12/23 02:10:39;;;;;;;0.30;0.20;;;;;;;13.44;100.00;100194.13;5021493;28;20419;-54
2020/12/23 02:13:05;;;;;;;0.30;0.20;;;;;;;13.59;100.00;100193.47;5027801;28;20772;-55
2020/12/23 02:15:31;;;;;;;0.30;0.20;;;;;;;13.42;100.00;100195.09;5028142;28;20451;-54
2020/12/23 02:17:57;;;;;;;0.30;0.20;;;;;;;13.36;100.00;100198.91;5021954;28;20422;-55
2020/12/23 02:20:24;;;;;;;0.30;0.20;;;;;;;13.36;100.00;100200.72;5019921;28;21055;-55
2020/12/23 02:22:51;;;;;;;0.30;0.20;;;;;;;13.36;100.00;100200.72;5027797;28;20428;-53
2020/12/23 02:25:17;;;;;;;0.30;0.20;;;;;;;13.24;100.00;100196.75;5027907;28;20918;-53
2020/12/23 02:27:43;;;;;;;0.30;0.20;;;;;;;13.42;100.00;100187.97;5022373;28;20452;-53
2020/12/23 02:30:11;;;;;;;0.30;0.20;;;;;;;13.28;100.00;100175.19;5021660;28;20469;-54
2020/12/23 02:32:38;;;;;;;0.30;0.20;;;;;;;13.25;100.00;100175.31;5004878;28;20786;-53
2020/12/23 02:35:06;;;;;;;0.30;0.20;;;;;;;13.30;100.00;100180.50;5028251;28;20452;-54
2020/12/23 02:37:32;;;;;;;0.30;0.20;;;;;;;13.23;100.00;100174.53;5023183;28;20458;-54
2020/12/23 02:39:58;;;;;;;0.30;0.20;;;;;;;13.18;100.00;100171.19;5021090;28;20472;-54
2020/12/23 02:42:25;;;;;;;0.30;0.20;;;;;;;13.15;100.00;100170.38;5026030;28;20431;-54
2020/12/23 02:44:54;;;;;;;0.30;0.20;;;;;;;13.11;100.00;100166.13;5027775;28;20849;-54
2020/12/23 02:47:20;;;;;;;0.30;0.20;;;;;;;13.01;100.00;100168.28;5023435;28;20430;-53
2020/12/23 02:49:47;;;;;;;0.30;0.20;;;;;;;12.98;100.00;100160.41;5020681;28;20439;-54
2020/12/23 02:52:13;;;;;;;0.30;0.20;;;;;;;12.98;100.00;100150.59;5025374;28;20544;-53
2020/12/23 02:54:40;;;;;;;0.30;0.20;;;;;;;12.97;100.00;100150.66;5028202;28;20945;-54
2020/12/23 02:57:07;;;;;;;0.30;0.20;;;;;;;13.01;100.00;100145.13;5014833;28;20422;-54
2020/12/23 02:59:33;;;;;;;0.30;0.20;;;;;;;13.00;100.00;100146.06;5027679;28;20454;-54
2020/12/23 03:01:59;;;;;;;0.30;0.20;;;;;;;12.91;100.00;100142.94;5023487;28;20944;-53
2020/12/23 03:04:26;;;;;;;0.30;0.20;;;;;;;12.80;100.00;100146.03;5008398;28;20956;-53
2020/12/23 03:06:53;;;;;;;0.30;0.20;;;;;;;12.72;100.00;100140.97;5023934;28;20466;-54
2020/12/23 03:09:19;;;;;;;0.30;0.20;;;;;;;12.58;100.00;100143.31;5020843;28;20482;-53
2020/12/23 03:11:45;;;;;;;0.30;0.20;;;;;;;12.73;100.00;100147.19;5024663;28;20456;-54
2020/12/23 03:14:11;;;;;;;0.30;0.20;;;;;;;12.64;100.00;100143.09;5027177;28;20452;-53
2020/12/23 03:16:38;;;;;;;0.30;0.20;;;;;;;12.72;100.00;100146.31;5023774;28;20969;-53
2020/12/23 03:19:04;;;;;;;0.30;0.20;;;;;;;12.65;100.00;100142.16;5020026;28;20450;-54
2020/12/23 03:21:31;;;;;;;0.30;0.20;;;;;;;12.71;100.00;100163.25;5024133;28;20456;-53
2020/12/23 03:23:57;;;;;;;0.30;0.20;;;;;;;12.86;100.00;100171.56;5026793;28;20493;-54
2020/12/23 03:26:23;;;;;;;0.30;0.20;;;;;;;12.70;100.00;100184.66;5023716;28;20487;-54
2020/12/23 03:28:49;;;;;;;0.30;0.20;;;;;;;12.65;100.00;100175.97;5020459;28;20495;-54
2020/12/23 03:31:16;;;;;;;0.30;0.20;;;;;;;12.58;100.00;100172.66;5023806;28;20512;-54
2020/12/23 03:33:43;;;;;;;0.30;0.20;;;;;;;12.48;100.00;100155.28;5026711;28;20444;-54
2020/12/23 03:36:10;;;;;;;0.30;0.20;;;;;;;12.40;100.00;100154.72;5013899;28;20449;-54
2020/12/23 03:38:36;;;;;;;0.30;0.20;;;;;;;12.38;100.00;100152.09;5026851;28;20475;-54
2020/12/23 03:41:02;;;;;;;0.30;0.20;;;;;;;12.43;100.00;100146.59;5023035;28;20938;-54
2020/12/23 03:43:28;;;;;;;0.30;0.20;;;;;;;12.32;100.00;100144.31;5019895;28;20426;-54
2020/12/23 03:45:55;;;;;;;0.30;0.20;;;;;;;12.31;100.00;100142.59;5023547;28;20485;-54
2020/12/23 03:48:21;;;;;;;0.30;0.20;;;;;;;12.48;100.00;100138.44;5026941;28;20431;-54
2020/12/23 03:50:47;;;;;;;0.30;0.20;;;;;;;12.36;100.00;100135.31;5022818;28;20426;-54
2020/12/23 03:53:13;;;;;;;0.30;0.20;;;;;;;12.43;100.00;100138.59;5019842;28;20427;-54
2020/12/23 03:55:40;;;;;;;0.30;0.20;;;;;;;12.43;100.00;100135.91;5023852;28;20423;-54
2020/12/23 03:58:06;;;;;;;0.30;0.20;;;;;;;12.33;100.00;100126.53;5017200;28;20452;-54
2020/12/23 04:00:32;;;;;;;0.30;0.20;;;;;;;12.34;100.00;100131.84;5022398;28;20452;-54
2020/12/23 04:02:59;;;;;;;0.30;0.20;;;;;;;12.13;100.00;100111.31;5025670;28;20456;-54
2020/12/23 04:05:36;;;;;;;0.30;0.20;;;;;;;11.81;100.00;100115.19;5005842;28;20474;-54
2020/12/23 04:08:03;;;;;;;0.30;0.20;;;;;;;11.86;100.00;100113.22;5026483;28;20448;-53
2020/12/23 04:10:29;;;;;;;0.30;0.20;;;;;;;11.96;100.00;100111.97;5025345;28;20426;-54
2020/12/23 04:12:55;;;;;;;0.30;0.20;;;;;;;12.08;100.00;100094.66;5019418;28;20451;-54
2020/12/23 04:15:21;;;;;;;0.30;0.20;;;;;;;12.07;100.00;100092.91;5021104;28;20430;-54
2020/12/23 04:17:47;;;;;;;0.30;0.20;;;;;;;12.10;100.00;100101.66;5026413;28;20486;-54
2020/12/23 04:20:14;;;;;;;0.30;0.20;;;;;;;12.07;100.00;100111.56;5024928;28;20471;-54
2020/12/23 04:22:40;;;;;;;0.30;0.20;;;;;;;12.22;100.00;100105.66;5019848;28;20482;-54
2020/12/23 04:25:07;;;;;;;0.30;0.20;;;;;;;12.34;100.00;100101.66;5020426;28;20452;-54
2020/12/23 04:27:34;;;;;;;0.30;0.20;;;;;;;12.15;100.00;100102.34;5026405;28;20452;-54
2020/12/23 04:30:02;;;;;;;0.30;0.20;;;;;;;12.29;100.00;100112.47;5025342;28;20486;-55
2020/12/23 04:32:28;;;;;;;0.30;0.20;;;;;;;12.48;100.00;100119.78;5019287;28;20452;-53
2020/12/23 04:34:54;;;;;;;0.30;0.20;;;;;;;12.34;100.00;100118.50;5019777;28;20514;-53
2020/12/23 04:37:20;;;;;;;0.30;0.20;;;;;;;12.29;100.00;100117.78;5025594;28;20921;-53
2020/12/23 04:39:47;;;;;;;0.30;0.20;;;;;;;12.24;100.00;100108.25;5025376;28;20841;-54
2020/12/23 04:42:13;;;;;;;0.30;0.20;;;;;;;12.18;100.00;100119.13;5019274;28;20449;-53
2020/12/23 04:44:39;;;;;;;0.30;0.20;;;;;;;12.18;100.00;100111.13;5018687;28;20452;-53
2020/12/23 04:47:09;;;;;;;0.30;0.20;;;;;;;12.19;100.00;100108.41;5025315;28;20471;-52
2020/12/23 04:49:37;;;;;;;0.30;0.20;;;;;;;12.02;100.00;100109.06;5025671;28;20467;-53
2020/12/23 04:52:07;;;;;;;0.30;0.20;;;;;;;11.86;100.00;100108.75;5020189;28;20448;-54
2020/12/23 04:54:34;;;;;;;0.30;0.20;;;;;;;12.12;100.00;100104.25;5018917;28;20422;-54
2020/12/23 04:57:02;;;;;;;0.30;0.20;;;;;;;12.07;100.00;100098.25;5015448;28;20456;-54
2020/12/23 04:59:29;;;;;;;0.30;0.20;;;;;;;11.90;100.00;100090.84;5021060;28;20479;-55
2020/12/23 05:01:58;;;;;;;0.30;0.20;;;;;;;11.88;100.00;100089.19;5021034;28;20816;-55
2020/12/23 05:04:25;;;;;;;0.30;0.20;;;;;;;11.98;100.00;100099.44;5006482;28;20832;-55
2020/12/23 05:07:05;;;;;;;0.30;0.20;;;;;;;11.95;100.00;100101.34;5021809;28;20487;-55
2020/12/23 05:09:32;;;;;;;0.30;0.20;;;;;;;11.81;100.00;100100.06;5018908;28;20464;-53
2020/12/23 05:11:58;;;;;;;0.30;0.20;;;;;;;11.88;100.00;100100.69;5020939;28;20453;-55
2020/12/23 05:14:26;;;;;;;0.30;0.20;;;;;;;11.97;100.00;100103.03;5025202;28;20448;-53
2020/12/23 05:16:53;;;;;;;0.30;0.20;;;;;;;11.97;100.00;100088.84;5023862;28;20500;-54
2020/12/23 05:19:21;;;;;;;0.30;0.20;;;;;;;11.92;100.00;100081.00;5018369;28;20494;-53
2020/12/23 05:21:47;;;;;;;0.30;0.20;;;;;;;11.90;100.00;100087.31;5019880;28;20427;-54
2020/12/23 05:24:14;;;;;;;0.30;0.20;;;;;;;12.14;100.00;100089.06;5025361;28;20427;-55
2020/12/23 05:26:43;;;;;;;0.30;0.20;;;;;;;12.04;100.00;100079.69;5024457;28;20466;-54
2020/12/23 05:29:13;;;;;;;0.30;0.20;;;;;;;12.03;100.00;100072.63;5018633;28;20476;-53
2020/12/23 05:31:41;;;;;;;0.30;0.20;;;;;;;11.86;100.00;100067.94;5018593;28;20849;-53
2020/12/23 05:34:08;;;;;;;0.30;0.20;;;;;;;11.82;100.00;100072.50;5005824;28;20447;-53
2020/12/23 05:36:41;;;;;;;0.30;0.20;;;;;;;11.79;100.00;100069.09;5018275;28;20499;-54
2020/12/23 05:39:09;;;;;;;0.30;0.20;;;;;;;11.75;100.00;100076.28;5024006;28;20469;-55
2020/12/23 05:41:37;;;;;;;0.30;0.20;;;;;;;11.81;100.00;100070.78;5024903;28;20542;-54
2020/12/23 05:44:17;;;;;;;0.30;0.20;;;;;;;11.84;100.00;100086.63;5020480;28;20451;-54
2020/12/23 05:46:51;;;;;;;0.30;0.20;;;;;;;11.86;100.00;100091.91;5018155;28;20499;-55
2020/12/23 05:49:18;;;;;;;0.30;0.20;;;;;;;11.88;100.00;100081.19;5020546;28;20496;-54
2020/12/23 05:51:45;;;;;;;0.30;0.20;;;;;;;11.77;100.00;100065.56;5025217;28;20452;-54
2020/12/23 05:54:12;;;;;;;0.30;0.20;;;;;;;11.76;100.00;100043.41;5023745;28;20451;-55
2020/12/23 05:56:40;;;;;;;0.30;0.20;;;;;;;11.71;100.00;100033.84;5016711;28;20452;-52
2020/12/23 05:59:06;;;;;;;0.30;0.20;;;;;;;11.65;100.00;100048.28;5028172;28;20875;-55
2020/12/23 06:01:35;;;;;;;0.30;0.20;;;;;;;11.70;100.00;100046.31;5021935;28;20451;-54
2020/12/23 06:04:05;;;;;;;0.30;0.20;;;;;;;11.73;100.00;100051.50;5013292;28;20468;-55
2020/12/23 06:06:33;;;;;;;0.30;0.20;;;;;;;11.81;100.00;100051.28;5009014;28;20499;-53
2020/12/23 06:09:05;;;;;;;0.30;0.20;;;;;;;11.85;100.00;100056.41;5021752;28;20472;-53
2020/12/23 06:11:40;;;;;;;0.30;0.20;;;;;;;11.82;100.00;100053.00;5027088;28;20419;-54
2020/12/23 06:14:11;;;;;;;0.30;0.20;;;;;;;11.84;100.00;100043.16;5028309;28;20932;-54
2020/12/23 06:16:42;;;;;;;0.30;0.20;;;;;;;11.85;100.00;100036.91;5025058;28;20818;-54
2020/12/23 06:19:10;;;;;;;0.30;0.20;;;;;;;11.88;100.00;100035.91;5021368;28;20483;-54
2020/12/23 06:21:39;;;;;;;0.30;0.20;;;;;;;11.93;100.00;100036.63;5024250;28;20491;-54
2020/12/23 06:24:06;;;;;;;0.30;0.20;;;;;;;11.97;100.00;100033.78;5028147;28;20452;-54
2020/12/23 06:26:40;;;;;;;0.30;0.20;;;;;;;12.02;100.00;100036.25;5026611;28;20487;-54
2020/12/23 06:29:09;;;;;;;0.30;0.20;;;;;;;12.01;100.00;100035.38;5021120;28;20467;-54
2020/12/23 06:31:51;;;;;;;0.30;0.20;;;;;;;11.95;100.00;100024.97;5021747;28;20499;-54
2020/12/23 06:34:26;;;;;;;0.40;0.20;;;;;;;12.04;100.00;100032.59;5011494;28;20472;-54
2020/12/23 06:36:53;;;;;;;0.30;0.20;;;;;;;12.11;100.00;100035.91;5021176;28;20426;-54
2020/12/23 06:39:27;;;;;;;0.30;0.20;;;;;;;12.04;100.00;100040.59;5024818;28;20952;-54
2020/12/23 06:41:59;;;;;;;0.30;0.20;;;;;;;12.00;100.00;100036.31;5027665;28;20942;-55
2020/12/23 06:44:46;;;;;;;0.30;0.20;;;;;;;12.02;100.00;100026.47;5025860;28;20498;-55
2020/12/23 06:47:17;;;;;;;0.30;0.20;;;;;;;11.99;100.00;100026.59;5026738;28;20491;-54
2020/12/23 06:49:47;;;;;;;0.30;0.20;;;;;;;12.02;100.00;100026.47;5027490;28;20438;-54
2020/12/23 06:52:22;;;;;;;0.30;0.20;;;;;;;12.00;100.00;100027.47;5023337;28;20448;-54
2020/12/23 06:55:02;;;;;;;0.30;0.20;;;;;;;12.01;100.00;100034.53;5020733;28;20479;-54
2020/12/23 06:57:38;;;;;;;0.30;0.20;;;;;;;11.85;100.00;100019.13;5009490;28;20441;-55
2020/12/23 07:00:08;;;;;;;0.30;0.20;;;;;;;11.82;100.00;100024.56;5008335;28;20442;-55
2020/12/23 07:02:42;;;;;;;0.30;0.20;;;;;;;12.03;100.00;100030.84;5011714;28;20471;-55
2020/12/23 07:05:13;;;;;;;0.30;0.20;;;;;;;11.97;100.00;100023.13;5024129;28;20839;-55
2020/12/23 07:07:43;;;;;;;0.30;0.20;;;;;;;11.95;100.00;100026.78;5019818;28;20986;-54
2020/12/23 07:10:10;;;;;;;0.30;0.20;;;;;;;11.90;100.00;100028.72;5024621;28;20454;-55
2020/12/23 07:12:47;;;;;;;0.30;0.20;;;;;;;11.81;100.00;100021.97;5027209;28;20419;-55
2020/12/23 07:15:18;;;;;;;0.30;0.20;;;;;;;11.87;100.00;100019.06;5025286;28;20841;-55
2020/12/23 07:17:46;;;;;;;0.30;0.20;;;;;;;11.86;100.00;100015.53;5020331;28;20803;-55
2020/12/23 07:20:13;;;;;;;0.30;0.20;;;;;;;12.02;100.00;100030.94;5021289;28;20810;-55
2020/12/23 07:22:46;;;;;;;0.30;0.20;;;;;;;12.10;100.00;100020.84;5026666;28;20488;-54
2020/12/23 07:25:17;;;;;;;0.30;0.20;;;;;;;12.19;100.00;100024.94;5026757;28;20501;-55
2020/12/23 07:27:46;;;;;;;0.30;0.20;;;;;;;12.30;100.00;100020.03;5026725;28;20555;-55
2020/12/23 07:30:12;;;;;;;0.30;0.20;;;;;;;12.32;100.00;100028.84;5026527;28;20471;-55
2020/12/23 07:32:39;;;;;;;0.30;0.20;;;;;;;12.33;100.00;100026.13;5020819;28;20937;-55
2020/12/23 07:35:06;;;;;;;0.30;0.20;;;;;;;12.39;100.00;100023.22;5020302;28;20864;-55
2020/12/23 07:37:41;;;;;;;0.30;0.20;;;;;;;12.37;100.00;100032.22;5026382;28;20416;-54
2020/12/23 07:40:16;;;;;;;0.30;0.20;;;;;;;12.41;100.00;100028.50;5026478;28;20499;-55
2020/12/23 07:42:49;;;;;;;0.30;0.20;;;;;;;12.37;100.00;100030.41;5023162;28;20995;-54
2020/12/23 07:45:16;;;;;;;0.30;0.20;;;;;;;12.35;100.00;100032.28;5011902;28;20987;-54
2020/12/23 07:47:55;;;;;;;0.30;0.20;;;;;;;12.32;100.00;100032.38;5020382;28;20518;-54
2020/12/23 07:50:21;;;;;;;0.30;0.20;;;;;;;12.32;100.00;100034.19;5019492;28;20460;-54
2020/12/23 07:52:48;;;;;;;0.30;0.20;;;;;;;12.21;100.00;100037.28;5020278;28;20974;-54
2020/12/23 07:55:15;;;;;;;0.30;0.30;;;;;;;12.14;100.00;100031.31;5026494;28;20797;-54
2020/12/23 07:57:42;;;;;;;0.30;0.20;;;;;;;12.08;100.00;100020.03;5013843;28;20441;-54
2020/12/23 08:00:13;;;;;;;0.30;0.20;;;;;;;12.05;100.00;100026.34;5025791;28;20472;-54
2020/12/23 08:02:41;;;;;;;0.30;0.20;;;;;;;12.10;100.00;100023.50;5026574;28;20427;-54
2020/12/23 08:05:09;;;;;;;0.30;0.20;;;;;;;12.03;100.00;100022.00;5003737;28;21028;-55
2020/12/23 08:07:44;;;;;;;0.30;0.20;;;;;;;12.02;100.00;100017.59;5026497;28;20487;-54
2020/12/23 08:10:15;;;;;;;0.30;0.20;;;;;;;12.02;100.00;100015.81;5023356;28;20796;-54
2020/12/23 08:12:49;;;;;;;0.30;0.20;;;;;;;12.07;100.00;100018.31;5019350;28;20451;-55
2020/12/23 08:15:15;;;;;;;0.30;0.20;;;;;;;12.02;100.00;100013.16;5020337;28;20448;-55
2020/12/23 08:17:42;;;;;;;0.30;0.20;;;;;;;12.15;100.00;100009.06;5025893;28;20460;-55
2020/12/23 08:20:13;;;;;;;0.30;0.20;;;;;;;12.28;100.00;100016.59;5024317;28;20487;-55
2020/12/23 08:22:44;;;;;;;0.30;0.20;;;;;;;12.29;100.00;100013.84;5019502;28;20443;-55
2020/12/23 08:25:18;;;;;;;0.30;0.20;;;;;;;12.27;100.00;100009.53;5019550;28;20484;-55
2020/12/23 08:27:46;;;;;;;0.30;0.20;;;;;;;12.26;100.00;100007.78;5024707;28;20492;-55
2020/12/23 08:30:26;;;;;;;0.30;0.20;;;;;;;12.33;100.00;100018.13;5025691;28;20446;-55
2020/12/23 08:32:56;;;;;;;0.30;0.20;;;;;;;12.36;100.00;100009.16;5022630;28;20458;-55
2020/12/23 08:35:34;;;;;;;0.30;0.20;;;;;;;12.41;100.00;100002.69;5019054;28;20443;-55
2020/12/23 08:38:00;;;;;;;0.30;0.20;;;;;;;12.47;100.00;100006.91;5007916;28;20437;-55
2020/12/23 08:40:26;;;;;;;0.30;0.20;;;;;;;12.48;100.00;99997.13;5024640;28;20472;-54
2020/12/23 08:42:57;;;;;;;0.30;0.20;;;;;;;12.55;100.00;100010.13;5025159;28;20538;-55
2020/12/23 08:45:24;;;;;;;0.30;0.20;;;;;;;12.54;100.00;100007.53;5012492;28;20439;-54
2020/12/23 08:47:51;;;;;;;0.30;0.20;;;;;;;12.60;100.00;100009.94;5025646;28;20466;-55
2020/12/23 08:50:21;;;;;;;0.30;0.20;;;;;;;12.58;100.00;99994.00;5019048;28;20449;-55
2020/12/23 08:52:49;;;;;;;0.30;0.20;;;;;;;12.60;100.00;100000.13;5018653;28;20427;-55
2020/12/23 08:55:18;;;;;;;0.30;0.20;;;;;;;12.65;100.00;100000.81;5025478;28;20940;-49
2020/12/23 08:57:45;;;;;;;0.30;0.20;;;;;;;12.63;100.00;99999.16;5013189;28;21069;-49
2020/12/23 09:00:19;;;;;;;0.30;0.20;;;;;;;12.62;100.00;99992.09;5024277;28;20447;-49
2020/12/23 09:02:47;;;;;;;0.30;0.20;;;;;;;12.63;100.00;100002.69;5025904;28;20450;-49
2020/12/23 09:05:24;;;;;;;0.30;0.20;;;;;;;12.67;100.00;99998.97;5002712;28;20460;-49
2020/12/23 09:08:04;;;;;;;0.30;0.20;;;;;;;12.71;100.00;99994.34;5025637;28;20911;-49
2020/12/23 09:10:36;;;;;;;0.30;0.20;;;;;;;12.70;100.00;99982.81;5024337;28;20455;-49
2020/12/23 09:13:08;;;;;;;0.30;0.20;;;;;;;12.73;100.00;99984.50;5018607;28;20459;-49
2020/12/23 09:15:35;;;;;;;0.30;0.20;;;;;;;12.67;100.00;99972.28;5016945;28;20499;-49
2020/12/23 09:18:16;;;;;;;0.30;0.20;;;;;;;12.73;100.00;99982.69;5024597;28;20453;-48
2020/12/23 09:20:43;;;;;;;0.30;0.20;;;;;;;12.72;100.00;99978.28;5025176;28;20494;-49
2020/12/23 09:23:10;;;;;;;0.30;0.20;;;;;;;12.75;100.00;99974.66;5012356;28;20915;-49
2020/12/23 09:25:38;;;;;;;0.30;0.20;;;;;;;12.81;100.00;99984.19;5025121;28;20549;-49
2020/12/23 09:28:09;;;;;;;0.30;0.20;;;;;;;12.74;100.00;99979.09;5022395;28;20467;-49
2020/12/23 09:30:44;;;;;;;0.30;0.20;;;;;;;12.73;100.00;99976.50;5021263;28;20451;-50
2020/12/23 09:33:12;;;;;;;0.30;0.20;;;;;;;12.73;100.00;99984.50;5023482;28;20851;-49
2020/12/23 09:35:39;;;;;;;0.30;0.20;;;;;;;12.71;100.00;99968.56;5029293;28;20452;-49
2020/12/23 09:38:12;;;;;;;0.30;0.20;;;;;;;12.73;100.00;99979.16;5028486;28;20575;-49
2020/12/23 09:40:41;;;;;;;0.30;0.20;;;;;;;12.74;100.00;99970.22;5028402;28;20429;-49
2020/12/23 09:43:09;;;;;;;0.30;0.20;;;;;;;12.77;100.00;99962.09;5028974;28;20458;-48
2020/12/23 09:45:35;;;;;;;0.30;0.20;;;;;;;12.78;100.00;99960.31;5023655;28;20426;-49
2020/12/23 09:48:02;;;;;;;0.30;0.20;;;;;;;12.88;100.00;99962.50;5021915;28;20470;-49
2020/12/23 09:50:28;;;;;;;0.30;0.20;;;;;;;12.89;100.00;99948.25;5027569;28;20427;-48
2020/12/23 09:52:54;;;;;;;0.30;0.20;;;;;;;12.92;100.00;99948.09;5028868;28;20939;-49
2020/12/23 09:55:22;;;;;;;0.30;0.20;;;;;;;13.05;100.00;99943.09;5023235;28;20800;-49
2020/12/23 09:57:48;;;;;;;0.30;0.20;;;;;;;13.11;100.00;99939.28;5008606;28;20870;-49
2020/12/23 10:00:14;;;;;;;0.30;0.20;;;;;;;13.16;100.00;99942.63;5026425;28;20480;-49
2020/12/23 10:02:40;;;;;;;0.30;0.20;;;;;;;13.17;100.00;99929.22;5028587;28;20460;-48
2020/12/23 10:05:07;;;;;;;0.30;0.20;;;;;;;13.17;100.00;99926.53;5004758;28;20460;-49
2020/12/23 10:07:33;;;;;;;0.30;0.20;;;;;;;13.23;100.00;99928.97;5028722;28;20577;-49
2020/12/23 10:10:00;;;;;;;0.30;0.20;;;;;;;13.28;100.00;99918.94;5022478;28;20471;-49
2020/12/23 10:12:26;;;;;;;0.30;0.20;;;;;;;13.28;100.00;99916.25;5021511;28;20825;-49
2020/12/23 10:14:52;;;;;;;0.30;0.20;;;;;;;13.49;100.00;99908.22;5025185;28;20449;-49
2020/12/23 10:17:19;;;;;;;0.30;0.20;;;;;;;13.67;100.00;99901.13;5028582;28;20460;-49
2020/12/23 10:19:45;;;;;;;0.30;0.20;;;;;;;13.86;100.00;99894.84;5023258;28;20454;-49
2020/12/23 10:22:11;;;;;;;0.30;0.20;;;;;;;14.04;100.00;99898.41;5021758;28;20449;-48
2020/12/23 10:24:37;;;;;;;0.30;0.20;;;;;;;14.17;100.00;99888.84;5026387;28;20435;-49
2020/12/23 10:27:04;;;;;;;0.30;0.20;;;;;;;14.21;100.00;99879.72;5028250;28;20466;-50
2020/12/23 10:29:30;;;;;;;0.30;0.20;;;;;;;14.29;100.00;99884.72;5023401;28;20467;-49
2020/12/23 10:31:57;;;;;;;0.30;0.20;;;;;;;14.24;100.00;99886.72;5020715;28;20916;-49
2020/12/23 10:34:23;;;;;;;0.30;0.20;;;;;;;14.48;100.00;99887.34;5026143;28;20784;-49
2020/12/23 10:36:49;;;;;;;0.30;0.20;;;;;;;14.31;100.00;99887.31;5028274;28;20469;-50
2020/12/23 10:39:16;;;;;;;0.40;0.30;;;;;;;14.29;100.00;99883.84;5023174;28;21007;-49
2020/12/23 10:41:43;;;;;;;0.30;0.20;;;;;;;14.33;100.00;99875.56;5020023;28;20424;-49
2020/12/23 10:44:10;;;;;;;0.30;0.20;;;;;;;14.20;100.00;99874.47;5025914;28;20427;-51
2020/12/23 10:46:36;;;;;;;0.30;0.20;;;;;;;14.36;100.00;99879.91;5027606;28;20450;-49
2020/12/23 10:49:04;;;;;;;0.30;0.20;;;;;;;14.40;100.00;99866.31;5023373;28;20442;-49
2020/12/23 10:51:31;;;;;;;0.30;0.20;;;;;;;14.58;100.00;99861.84;5021112;28;20422;-50
2020/12/23 10:53:57;;;;;;;0.30;0.20;;;;;;;14.26;100.00;99867.97;5024847;28;20444;-49
2020/12/23 10:56:23;;;;;;;0.30;0.20;;;;;;;14.34;100.00;99866.63;5023231;28;20449;-49
2020/12/23 10:58:49;;;;;;;0.30;0.20;;;;;;;14.22;100.00;99856.53;5014462;28;20950;-49
2020/12/23 11:01:20;;;;;;;0.30;0.20;;;;;;;14.10;100.00;99863.34;5020882;28;20476;-49
2020/12/23 11:03:46;;;;;;;0.30;0.20;;;;;;;14.06;100.00;99871.63;5016665;28;20436;-50
2020/12/23 11:06:14;;;;;;;0.30;0.20;;;;;;;13.89;100.00;99876.00;5015182;28;21057;-49
2020/12/23 11:08:43;;;;;;;0.30;0.20;;;;;;;13.96;100.00;99860.50;5023090;28;20447;-48
2020/12/23 11:11:15;;;;;;;0.30;0.20;;;;;;;13.82;100.00;99855.84;5027063;28;20796;-49
2020/12/23 11:13:42;;;;;;;10.23;1.50;;;;;;;14.06;100.00;99847.56;5026280;28;20484;-48
2020/12/23 11:16:18;;;;;;;0.30;0.20;;;;;;;13.92;100.00;99857.13;5020228;28;20452;-49
2020/12/23 11:18:46;;;;;;;0.30;0.20;;;;;;;14.01;100.00;99849.59;5020341;28;20589;-49
2020/12/23 11:21:13;;;;;;;0.30;0.20;;;;;;;14.03;100.00;99842.38;5026103;28;20455;-49
2020/12/23 11:23:40;;;;;;;1.60;1.50;;;;;;;14.00;100.00;99845.22;5027021;28;20426;-49